Time;durP1;ratioP1;P1;durP2;ratioP2;P2;SDS_P1;SDS_P2;PMS_P1;PMS_P2;Temp;Humidity;BMP_temperature;BMP_pressure;BME280_temperature;BME280_humidity;BME280_pressure;Samples;Min_cycle;Max_cycle;Signal;HPM_P1;HPM_P2
2021/07/25 00:01:56;;;;;;;19.07;14.28;;;;;;;15.76;87.48;97895.23;1612728;87;21323;-76
2021/07/25 00:04:22;;;;;;;16.27;13.48;;;;;;;15.71;87.48;97890.70;1612991;89;21573;-72
2021/07/25 00:06:48;;;;;;;20.00;14.40;;;;;;;15.72;87.01;97898.33;1612731;87;20986;-76
2021/07/25 00:09:14;;;;;;;18.50;15.05;;;;;;;15.74;87.16;97892.81;1613053;89;21026;-72
2021/07/25 00:11:40;;;;;;;24.43;16.05;;;;;;;15.77;87.81;97902.30;1612808;87;21692;-72
2021/07/25 00:14:06;;;;;;;18.98;13.48;;;;;;;15.80;87.72;97902.45;1613142;89;21318;-72
2021/07/25 00:16:32;;;;;;;17.45;14.73;;;;;;;15.76;88.48;97904.23;1612677;87;20891;-76
2021/07/25 00:18:58;;;;;;;20.52;14.80;;;;;;;15.75;87.41;97901.26;1613034;89;20932;-76
2021/07/25 00:21:24;;;;;;;21.33;16.07;;;;;;;15.76;88.84;97898.77;1612808;89;21054;-77
2021/07/25 00:23:52;;;;;;;22.93;14.38;;;;;;;15.80;87.44;97894.83;1612781;87;21436;-77
2021/07/25 00:26:24;;;;;;;19.30;14.53;;;;;;;15.90;86.63;97895.92;1613111;87;21230;-76
2021/07/25 00:28:47;;;;;;;22.10;14.90;;;;;;;15.96;86.33;97889.73;1612221;87;21011;-76
2021/07/25 00:31:13;;;;;;;17.20;13.28;;;;;;;15.95;86.95;97893.03;1612897;87;20907;-76
2021/07/25 00:33:39;;;;;;;15.38;13.32;;;;;;;15.97;86.82;97884.51;1612817;87;20864;-76
2021/07/25 00:36:06;;;;;;;18.77;13.10;;;;;;;15.98;86.26;97884.75;1612981;89;20971;-76
2021/07/25 00:38:32;;;;;;;19.40;14.07;;;;;;;15.93;86.26;97884.91;1612773;87;21384;-71
2021/07/25 00:41:13;;;;;;;19.62;14.93;;;;;;;15.85;86.19;97877.50;1612759;87;20888;-71
2021/07/25 00:43:39;;;;;;;20.02;14.95;;;;;;;15.78;86.12;97877.39;1612556;87;20939;-76
2021/07/25 00:46:05;;;;;;;19.10;15.68;;;;;;;15.65;87.10;97863.87;1612895;89;20991;-76
2021/07/25 00:48:31;;;;;;;19.17;13.90;;;;;;;15.62;86.78;97868.02;1612717;87;21565;-72
2021/07/25 00:50:58;;;;;;;20.32;14.25;;;;;;;15.73;85.88;97867.99;1612786;89;21049;-72
2021/07/25 00:53:24;;;;;;;16.85;13.20;;;;;;;15.71;88.21;97877.60;1612859;87;21454;-76
2021/07/25 00:55:50;;;;;;;18.48;13.08;;;;;;;15.65;87.67;97867.41;1593253;89;20879;-71
2021/07/25 00:58:16;;;;;;;15.80;12.45;;;;;;;15.64;86.95;97861.70;1612861;87;21003;-71
2021/07/25 01:00:44;;;;;;;24.75;14.13;;;;;;;15.59;87.69;97863.16;1612925;89;21521;-71
2021/07/25 01:03:31;;;;;;;19.02;15.00;;;;;;;15.58;86.77;97853.36;1612634;87;21172;-76
2021/07/25 01:06:32;;;;;;;15.55;12.98;;;;;;;15.62;87.20;97859.02;1612770;89;21057;-71
2021/07/25 01:09:03;;;;;;;17.20;12.37;;;;;;;15.61;87.87;97857.41;1613029;89;21007;-76
2021/07/25 01:11:47;;;;;;;17.92;12.30;;;;;;;15.59;88.02;97857.70;1612696;87;20996;-76
2021/07/25 01:14:21;;;;;;;17.00;12.50;;;;;;;15.56;87.78;97863.00;1612930;89;20943;-71
2021/07/25 01:16:47;;;;;;;15.65;12.30;;;;;;;15.49;87.08;97864.81;1612711;87;21166;-72
2021/07/25 01:19:13;;;;;;;15.25;13.08;;;;;;;15.44;86.79;97856.19;1612942;89;21014;-76
2021/07/25 01:21:39;;;;;;;17.37;13.28;;;;;;;15.39;86.47;97854.19;1612641;87;20924;-71
2021/07/25 01:24:05;;;;;;;20.25;13.13;;;;;;;15.32;86.15;97853.27;1612895;89;21581;-71
2021/07/25 01:26:31;;;;;;;17.42;14.43;;;;;;;15.30;86.37;97847.88;1612739;87;20892;-76
2021/07/25 01:28:59;;;;;;;18.65;12.35;;;;;;;15.19;86.69;97842.67;1613099;87;21353;-76
2021/07/25 01:31:40;;;;;;;16.77;12.95;;;;;;;15.14;86.31;97842.83;1612670;87;20976;-75
2021/07/25 01:34:06;;;;;;;16.67;12.37;;;;;;;15.09;86.65;97842.95;1612901;89;20994;-71
2021/07/25 01:36:32;;;;;;;17.37;12.45;;;;;;;15.07;87.33;97840.30;1593185;87;20928;-75
2021/07/25 01:38:58;;;;;;;19.80;12.78;;;;;;;15.05;86.81;97843.90;1612932;89;21535;-75
2021/07/25 01:41:24;;;;;;;19.67;12.65;;;;;;;15.01;87.82;97849.72;1612785;89;21133;-76
2021/07/25 01:43:51;;;;;;;16.62;11.60;;;;;;;14.98;87.72;97847.06;1612676;87;20887;-75
2021/07/25 01:46:17;;;;;;;15.35;10.95;;;;;;;15.00;87.36;97842.09;1612811;89;20989;-71
2021/07/25 01:48:43;;;;;;;16.73;11.05;;;;;;;15.03;87.06;97846.92;1612819;87;20952;-75
2021/07/25 01:51:11;;;;;;;16.27;12.58;;;;;;;14.97;87.22;97849.55;1612691;89;21014;-75
2021/07/25 01:53:37;;;;;;;14.15;11.38;;;;;;;14.94;86.75;97846.06;1612901;87;21484;-71
2021/07/25 01:56:03;;;;;;;16.15;11.80;;;;;;;14.92;87.16;97843.66;1612858;89;20879;-76
2021/07/25 01:58:29;;;;;;;16.45;11.93;;;;;;;14.93;87.12;97847.98;1612706;87;21419;-72
2021/07/25 02:00:55;;;;;;;14.53;11.80;;;;;;;14.92;87.53;97853.20;1612857;89;20914;-72
2021/07/25 02:03:22;;;;;;;17.23;12.78;;;;;;;14.90;88.40;97858.73;1612766;87;20935;-75
2021/07/25 02:05:48;;;;;;;17.45;12.68;;;;;;;14.91;87.77;97859.78;1612793;89;21318;-76
2021/07/25 02:08:15;;;;;;;16.57;12.53;;;;;;;14.94;87.37;97857.78;1612729;87;20974;-75
2021/07/25 02:10:47;;;;;;;14.43;11.60;;;;;;;14.98;87.67;97855.81;1612831;89;21228;-71
2021/07/25 02:13:13;;;;;;;17.65;13.28;;;;;;;15.01;87.05;97853.81;1614108;87;20959;-71
2021/07/25 02:15:39;;;;;;;19.07;12.82;;;;;;;15.03;87.33;97852.94;1612973;87;20944;-75
2021/07/25 02:18:05;;;;;;;17.95;13.18;;;;;;;15.04;87.47;97848.55;1612757;87;22028;-71
2021/07/25 02:20:31;;;;;;;16.62;11.22;;;;;;;15.04;86.99;97838.17;1612790;89;20871;-71
2021/07/25 02:22:57;;;;;;;14.40;11.35;;;;;;;14.99;87.37;97832.30;1613007;86;21064;-75
2021/07/25 02:25:23;;;;;;;16.75;10.45;;;;;;;14.99;86.65;97835.59;1612992;89;20903;-75
2021/07/25 02:27:49;;;;;;;16.82;11.12;;;;;;;14.97;86.16;97837.84;1612907;87;20911;-71
2021/07/25 02:30:15;;;;;;;19.23;11.43;;;;;;;14.92;85.86;97836.03;1612942;89;21313;-76
2021/07/25 02:32:40;;;;;;;13.83;11.65;;;;;;;14.87;85.81;97831.52;1629790;86;20940;-76
2021/07/25 02:35:07;;;;;;;19.17;14.45;;;;;;;14.84;85.82;97832.12;1631507;88;20980;-75
2021/07/25 02:37:33;;;;;;;19.05;13.53;;;;;;;14.83;87.34;97829.72;1631383;86;20961;-71
2021/07/25 02:39:59;;;;;;;17.48;13.72;;;;;;;14.88;88.43;97830.97;1601661;89;20889;-75
2021/07/25 02:42:25;;;;;;;16.00;11.45;;;;;;;14.91;87.69;97835.78;1631407;86;21317;-71
2021/07/25 02:44:51;;;;;;;20.52;12.85;;;;;;;14.95;86.39;97838.95;1631608;86;21456;-75
2021/07/25 02:47:17;;;;;;;17.07;12.23;;;;;;;14.97;86.54;97837.27;1603428;87;20956;-71
2021/07/25 02:49:43;;;;;;;17.42;14.03;;;;;;;15.00;86.76;97839.92;1638223;87;20960;-76
2021/07/25 02:52:09;;;;;;;15.72;12.35;;;;;;;14.99;86.42;97840.48;1631345;86;21000;-71
2021/07/25 02:54:35;;;;;;;16.73;12.47;;;;;;;15.00;86.08;97841.29;1631531;88;21299;-75
2021/07/25 02:57:01;;;;;;;15.72;11.90;;;;;;;14.98;85.67;97838.08;1631446;86;20944;-75
2021/07/25 02:59:28;;;;;;;16.73;11.88;;;;;;;14.95;85.75;97832.66;1631631;88;21641;-71
2021/07/25 03:01:54;;;;;;;15.88;12.18;;;;;;;14.94;85.90;97830.50;1631379;86;20984;-71
2021/07/25 03:04:20;;;;;;;19.73;13.08;;;;;;;15.04;85.10;97834.91;1631628;87;21377;-76
2021/07/25 03:06:46;;;;;;;15.85;12.10;;;;;;;15.05;85.17;97838.44;1631425;86;21152;-71
2021/07/25 03:09:12;;;;;;;19.48;13.18;;;;;;;15.07;84.92;97833.47;1601532;89;20985;-71
2021/07/25 03:11:39;;;;;;;18.12;12.60;;;;;;;15.04;85.68;97834.91;1638226;86;20928;-71
2021/07/25 03:14:06;;;;;;;18.37;12.28;;;;;;;15.11;84.84;97837.17;1631586;88;21049;-75
2021/07/25 03:16:32;;;;;;;19.60;11.85;;;;;;;15.17;84.54;97835.92;1631453;86;20937;-76
2021/07/25 03:18:58;;;;;;;16.95;12.93;;;;;;;15.24;84.33;97839.81;1611147;88;21020;-76
2021/07/25 03:21:24;;;;;;;18.65;11.83;;;;;;;15.23;84.53;97830.02;1631497;88;20932;-71
2021/07/25 03:23:50;;;;;;;17.17;12.80;;;;;;;15.24;84.40;97831.63;1631342;86;20915;-72
2021/07/25 03:26:17;;;;;;;16.57;11.20;;;;;;;15.23;85.07;97831.39;1631459;88;20928;-71
2021/07/25 03:28:42;;;;;;;16.85;12.05;;;;;;;15.17;85.27;97827.17;1631275;86;20961;-71
2021/07/25 03:31:08;;;;;;;16.90;12.05;;;;;;;15.13;85.54;97824.84;1601701;88;21282;-72
2021/07/25 03:33:34;;;;;;;16.27;11.55;;;;;;;15.18;84.89;97820.59;1637998;86;20923;-71
2021/07/25 03:36:00;;;;;;;13.62;10.08;;;;;;;15.25;84.53;97824.24;1638286;87;20988;-71
2021/07/25 03:38:26;;;;;;;16.25;11.12;;;;;;;15.36;83.84;97827.49;1638173;86;20892;-76
2021/07/25 03:40:53;;;;;;;15.00;11.22;;;;;;;15.38;83.70;97830.17;1602489;89;21511;-76
2021/07/25 03:43:19;;;;;;;16.50;12.85;;;;;;;15.38;83.82;97828.81;1638062;86;21218;-76
2021/07/25 03:45:47;;;;;;;14.20;11.60;;;;;;;15.38;83.82;97827.97;1637531;87;20959;-76
2021/07/25 03:48:13;;;;;;;21.43;12.37;;;;;;;15.38;83.31;97828.81;1638326;86;20948;-76
2021/07/25 03:50:40;;;;;;;18.65;11.45;;;;;;;15.29;83.70;97834.77;1638098;87;20967;-71
2021/07/25 03:53:07;;;;;;;21.37;12.30;;;;;;;15.22;83.95;97842.63;1604124;88;21091;-71
2021/07/25 03:55:35;;;;;;;15.55;11.55;;;;;;;15.18;84.01;97840.27;1631520;87;21212;-71
2021/07/25 03:58:02;;;;;;;19.30;11.18;;;;;;;15.24;83.61;97839.81;1631061;86;20985;-71
2021/07/25 04:00:28;;;;;;;16.02;11.68;;;;;;;15.31;83.67;97847.56;1631475;88;20965;-71
2021/07/25 04:02:54;;;;;;;15.70;11.70;;;;;;;15.34;83.98;97839.30;1631318;86;20960;-72
2021/07/25 04:05:20;;;;;;;14.93;10.90;;;;;;;15.41;84.12;97840.45;1601312;89;21020;-76
2021/07/25 04:07:46;;;;;;;13.85;10.55;;;;;;;15.53;83.88;97835.75;1636349;86;21156;-76
2021/07/25 04:10:13;;;;;;;14.13;10.93;;;;;;;15.77;82.94;97844.94;1601014;89;20956;-71
2021/07/25 04:12:39;;;;;;;15.35;10.78;;;;;;;15.89;81.80;97839.64;1638040;86;20996;-72
2021/07/25 04:15:07;;;;;;;17.10;11.15;;;;;;;15.98;81.26;97833.66;1631485;88;21016;-71
2021/07/25 04:17:36;;;;;;;16.05;11.20;;;;;;;16.10;80.86;97837.69;1601254;89;21439;-76
2021/07/25 04:20:04;;;;;;;;;;;;;;;16.15;80.69;97838.34;1633762;88;21158;-71
2021/07/25 04:22:34;;;;;;;18.42;11.73;;;;;;;16.13;81.47;97837.03;1631075;86;20129;-71
2021/07/25 04:25:00;;;;;;;17.17;11.68;;;;;;;16.22;81.05;97838.65;1631444;88;21508;-72
2021/07/25 04:27:27;;;;;;;16.80;11.05;;;;;;;16.37;81.01;97841.48;1601426;89;21092;-71
2021/07/25 04:29:56;;;;;;;18.73;12.50;;;;;;;16.50;79.69;97834.25;1638019;87;20944;-71
2021/07/25 04:32:22;;;;;;;16.42;12.80;;;;;;;16.55;79.93;97834.08;1611567;87;21413;-76
2021/07/25 04:34:49;;;;;;;13.88;10.72;;;;;;;16.64;79.96;97829.39;1631399;86;21056;-76
2021/07/25 04:37:23;;;;;;;14.30;11.25;;;;;;;16.74;80.12;97825.55;1631445;86;21040;-71
2021/07/25 04:39:50;;;;;;;14.38;10.88;;;;;;;16.83;80.04;97824.97;1631519;88;21004;-71
2021/07/25 04:42:22;;;;;;;15.53;10.48;;;;;;;16.91;79.47;97826.88;1631403;86;20976;-72
2021/07/25 04:44:55;;;;;;;13.58;11.25;;;;;;;17.07;79.28;97815.66;1631436;87;21311;-76
2021/07/25 04:47:27;;;;;;;14.73;11.68;;;;;;;17.24;78.80;97815.36;1631264;86;21334;-72
2021/07/25 04:50:04;;;;;;;15.15;12.28;;;;;;;17.33;78.38;97812.83;1627161;88;21005;-76
2021/07/25 04:52:40;;;;;;;18.23;11.28;;;;;;;17.37;78.18;97816.53;1631183;86;21048;-71
2021/07/25 04:55:11;;;;;;;16.50;10.53;;;;;;;17.43;77.61;97808.91;1631154;88;20988;-75
2021/07/25 04:57:41;;;;;;;15.83;12.28;;;;;;;17.60;77.61;97811.56;1631311;86;21148;-71
2021/07/25 05:00:13;;;;;;;16.12;11.12;;;;;;;17.71;77.49;97801.08;1631405;88;20980;-76
2021/07/25 05:02:40;;;;;;;15.48;12.30;;;;;;;17.87;77.50;97804.05;1630808;86;20957;-72
2021/07/25 05:05:08;;;;;;;15.40;10.58;;;;;;;18.00;77.26;97800.24;1631461;87;21071;-72
2021/07/25 05:07:40;;;;;;;14.68;10.43;;;;;;;18.12;76.94;97802.27;1631517;86;21570;-77
2021/07/25 05:10:07;;;;;;;13.80;9.58;;;;;;;18.18;76.90;97795.43;1631485;87;21067;-76
2021/07/25 05:13:00;;;;;;;15.28;11.12;;;;;;;18.36;75.70;97796.09;1638237;86;21715;-72
2021/07/25 05:15:33;;;;;;;13.22;11.18;;;;;;;18.38;75.71;97802.87;1638017;87;21052;-77
2021/07/25 05:18:08;;;;;;;17.70;11.05;;;;;;;18.56;75.57;97796.08;1637698;86;20996;-72
2021/07/25 05:20:45;;;;;;;14.65;11.10;;;;;;;18.78;75.37;97797.66;1631327;88;21052;-77
2021/07/25 05:23:32;;;;;;;15.75;11.33;;;;;;;19.01;74.96;97803.56;1630900;86;21030;-76
2021/07/25 05:25:58;;;;;;;11.97;9.53;;;;;;;19.28;74.41;97808.98;1630293;88;20976;-71
2021/07/25 05:28:24;;;;;;;17.37;10.00;;;;;;;19.61;72.69;97792.44;1637964;86;20919;-76
2021/07/25 05:30:52;;;;;;;10.90;8.68;;;;;;;19.88;71.27;97793.67;1631393;87;20912;-76
2021/07/25 05:33:20;;;;;;;10.90;9.30;;;;;;;20.18;70.40;97787.31;1636313;86;21052;-73
2021/07/25 05:35:46;;;;;;;13.00;9.83;;;;;;;20.46;70.46;97794.25;1636414;87;21753;-76
2021/07/25 05:38:13;;;;;;;12.55;9.38;;;;;;;20.65;69.96;97794.97;1635804;86;20977;-76
2021/07/25 05:40:39;;;;;;;12.03;9.73;;;;;;;20.78;70.32;97792.39;1636144;87;20995;-76
2021/07/25 05:43:05;;;;;;;11.45;9.18;;;;;;;20.78;70.45;97787.47;1635877;86;21479;-71
2021/07/25 05:45:31;;;;;;;10.53;8.83;;;;;;;21.01;69.96;97789.84;1636098;87;20915;-71
2021/07/25 05:47:57;;;;;;;13.35;10.10;;;;;;;21.26;69.76;97786.92;1635924;86;21808;-73
2021/07/25 05:50:23;;;;;;;12.88;9.20;;;;;;;21.47;69.25;97796.35;1608292;89;20948;-76
2021/07/25 05:52:56;;;;;;;15.40;10.13;;;;;;;21.63;68.61;97795.77;1635918;86;21003;-71
2021/07/25 05:55:29;;;;;;;11.53;8.95;;;;;;;21.74;68.19;97796.81;1608478;89;20961;-72
2021/07/25 05:57:56;;;;;;;11.75;8.18;;;;;;;21.79;68.11;97797.09;1635901;86;20980;-72
2021/07/25 06:00:22;;;;;;;12.58;8.18;;;;;;;21.76;67.82;97795.06;1636128;87;21309;-72
2021/07/25 06:02:57;;;;;;;10.78;7.58;;;;;;;21.72;67.50;97794.20;1635848;86;20984;-72
2021/07/25 06:05:24;;;;;;;10.82;7.75;;;;;;;21.77;66.16;97798.84;1636056;87;20925;-76
2021/07/25 06:07:50;;;;;;;9.83;8.03;;;;;;;21.86;65.41;97789.79;1636006;86;21011;-76
2021/07/25 06:10:16;;;;;;;9.93;7.37;;;;;;;22.00;65.37;97794.05;1636258;87;21585;-71
2021/07/25 06:12:42;;;;;;;11.30;8.23;;;;;;;22.03;66.21;97792.73;1636088;86;21130;-71
2021/07/25 06:15:10;;;;;;;10.50;7.80;;;;;;;;;;1636139;87;20937;-76
2021/07/25 06:17:36;;;;;;;7.97;6.70;;;;;;;22.32;63.59;97792.02;1636055;86;21036;-71
2021/07/25 06:20:03;;;;;;;13.53;7.05;;;;;;;22.49;62.69;97786.06;1636163;87;20953;-76
2021/07/25 06:22:43;;;;;;;11.35;7.62;;;;;;;22.65;61.62;97788.17;1636224;86;20992;-73
2021/07/25 06:25:11;;;;;;;9.78;7.62;;;;;;;22.71;61.52;97794.17;1634741;87;21176;-72
2021/07/25 06:27:38;;;;;;;8.58;7.22;;;;;;;22.81;61.39;97794.38;1636028;86;20984;-76
2021/07/25 06:30:06;;;;;;;11.97;6.97;;;;;;;22.97;61.62;97796.28;1636184;87;21554;-76
2021/07/25 06:32:55;;;;;;;13.45;7.50;;;;;;;23.09;60.90;97797.51;1635837;86;20964;-72
2021/07/25 06:35:26;;;;;;;9.13;7.25;;;;;;;23.13;59.86;97787.89;1636363;87;20953;-72
2021/07/25 06:37:52;;;;;;;11.30;7.75;;;;;;;23.36;59.72;97781.20;1635005;86;21421;-72
2021/07/25 06:40:18;;;;;;;10.85;7.70;;;;;;;23.62;59.20;97784.61;1636238;87;20884;-76
2021/07/25 06:42:44;;;;;;;12.07;7.15;;;;;;;23.91;58.07;97784.45;1636045;86;21004;-76
2021/07/25 06:45:10;;;;;;;8.38;7.15;;;;;;;24.09;56.44;97790.23;1636320;87;20960;-76
2021/07/25 06:47:36;;;;;;;11.88;7.28;;;;;;;24.06;57.33;97792.38;1636203;86;20896;-76
2021/07/25 06:50:03;;;;;;;10.85;7.72;;;;;;;24.31;56.71;97788.56;1636195;86;21303;-72
2021/07/25 06:52:29;;;;;;;13.18;8.93;;;;;;;24.58;57.34;97786.55;1636047;86;21479;-72
2021/07/25 06:54:55;;;;;;;12.65;8.20;;;;;;;24.84;55.50;97778.73;1636143;87;21637;-72
2021/07/25 06:57:20;;;;;;;7.65;6.67;;;;;;;24.92;55.69;97781.00;1636142;86;20932;-76
2021/07/25 06:59:46;;;;;;;9.65;6.72;;;;;;;24.95;54.47;97773.30;1636266;87;20994;-72
2021/07/25 07:02:12;;;;;;;11.33;8.30;;;;;;;25.12;54.10;97778.84;1636170;86;21243;-76
2021/07/25 07:04:38;;;;;;;9.18;6.75;;;;;;;25.39;53.28;97770.60;1635852;86;20985;-76
2021/07/25 07:07:05;;;;;;;7.83;6.83;;;;;;;25.65;52.30;97770.20;1636200;86;20979;-72
2021/07/25 07:09:31;;;;;;;9.78;6.75;;;;;;;25.77;52.16;97767.14;1636135;86;20948;-76
2021/07/25 07:12:00;;;;;;;10.68;7.22;;;;;;;25.87;53.13;97767.20;1636216;86;21526;-71
2021/07/25 07:14:26;;;;;;;7.12;6.25;;;;;;;26.29;50.99;97770.02;1636171;87;21754;-72
2021/07/25 07:16:52;;;;;;;10.58;6.95;;;;;;;26.51;51.41;97769.56;1636059;86;21606;-73
2021/07/25 07:19:17;;;;;;;10.68;6.80;;;;;;;26.68;50.02;97767.45;1635905;87;20965;-73
2021/07/25 07:21:43;;;;;;;13.78;9.78;;;;;;;26.78;50.92;97765.88;1636190;86;20959;-77
2021/07/25 07:24:09;;;;;;;9.00;7.12;;;;;;;27.13;49.85;97758.23;1636066;87;20911;-77
2021/07/25 07:26:35;;;;;;;11.43;7.10;;;;;;;27.24;47.74;97759.63;1636233;86;21342;-77
2021/07/25 07:29:01;;;;;;;13.38;9.28;;;;;;;27.11;47.15;97760.63;1635927;86;21630;-73
2021/07/25 07:31:27;;;;;;;12.98;8.40;;;;;;;27.50;48.95;97755.66;1636266;86;20908;-73
2021/07/25 07:33:54;;;;;;;11.73;8.18;;;;;;;27.99;48.26;97759.61;1617779;87;20895;-73
2021/07/25 07:36:20;;;;;;;10.03;6.83;;;;;;;28.20;46.77;97762.36;1612486;89;21500;-74
2021/07/25 07:38:46;;;;;;;8.63;7.10;;;;;;;28.46;46.41;97756.92;1612669;87;22051;-78
2021/07/25 07:41:11;;;;;;;9.63;6.65;;;;;;;28.36;45.93;97766.09;1613028;89;20971;-73
2021/07/25 07:43:38;;;;;;;9.15;7.22;;;;;;;28.00;47.43;97772.34;1612830;87;21565;-77
2021/07/25 07:46:04;;;;;;;9.10;7.55;;;;;;;27.99;47.26;97763.19;1613077;89;21055;-77
2021/07/25 07:48:30;;;;;;;13.95;8.68;;;;;;;28.03;46.90;97765.95;1593056;89;21010;-73
2021/07/25 07:50:56;;;;;;;11.57;7.00;;;;;;;28.23;47.26;97767.11;1613085;89;21906;-75
2021/07/25 07:53:22;;;;;;;10.50;6.85;;;;;;;28.55;46.70;97766.24;1612819;87;20871;-77
2021/07/25 07:55:48;;;;;;;8.30;6.60;;;;;;;29.06;45.87;97764.20;1613009;89;20927;-73
2021/07/25 07:58:14;;;;;;;7.30;6.40;;;;;;;29.76;44.70;97764.86;1612816;87;21690;-73
2021/07/25 08:00:40;;;;;;;13.08;6.70;;;;;;;29.89;44.89;97752.56;1613144;89;21099;-78
2021/07/25 08:03:06;;;;;;;13.55;6.50;;;;;;;30.26;43.88;97752.41;1612769;87;21240;-77
2021/07/25 08:05:32;;;;;;;8.75;6.72;;;;;;;30.18;43.43;97760.08;1612970;89;21034;-77
2021/07/25 08:07:58;;;;;;;8.73;6.37;;;;;;;30.20;43.09;97756.26;1612768;87;20915;-78
2021/07/25 08:10:24;;;;;;;8.33;6.28;;;;;;;29.91;42.83;97758.55;1613088;89;21022;-74
2021/07/25 08:12:50;;;;;;;8.70;6.60;;;;;;;29.94;42.57;97761.10;1612863;87;20987;-78
2021/07/25 08:15:17;;;;;;;14.73;6.67;;;;;;;29.87;42.60;97759.16;1613011;87;21323;-77
2021/07/25 08:17:43;;;;;;;9.80;7.70;;;;;;;30.03;42.63;97760.80;1612849;87;20920;-73
2021/07/25 08:20:10;;;;;;;10.63;6.62;;;;;;;30.00;42.58;97765.83;1613020;89;20932;-73
2021/07/25 08:22:36;;;;;;;7.65;6.55;;;;;;;29.76;42.81;97757.09;1612812;87;21035;-73
2021/07/25 08:25:04;;;;;;;9.75;6.78;;;;;;;29.32;42.98;97764.22;1613104;89;20868;-73
2021/07/25 08:27:30;;;;;;;7.95;7.08;;;;;;;29.18;44.15;97762.31;1612904;87;21167;-77
2021/07/25 08:29:55;;;;;;;10.85;7.37;;;;;;;28.96;44.18;97775.40;1613000;89;20895;-73
2021/07/25 08:32:21;;;;;;;8.83;7.28;;;;;;;28.76;43.86;97776.48;1613020;87;20974;-73
2021/07/25 08:34:47;;;;;;;8.80;6.92;;;;;;;28.33;45.04;97780.84;1631091;88;21027;-77
2021/07/25 08:37:14;;;;;;;7.97;7.15;;;;;;;27.96;46.88;97782.70;1631247;86;20892;-73
2021/07/25 08:39:40;;;;;;;8.03;7.17;;;;;;;27.81;46.86;97785.50;1631207;88;21390;-73
2021/07/25 08:42:12;;;;;;;11.45;7.95;;;;;;;27.58;47.72;97782.89;1631454;86;21001;-75
2021/07/25 08:44:53;;;;;;;11.10;8.53;;;;;;;27.41;48.17;97785.27;1638082;87;21040;-78
2021/07/25 08:47:36;;;;;;;11.00;8.63;;;;;;;27.29;48.70;97785.67;1637811;86;20948;-73
2021/07/25 08:50:16;;;;;;;8.70;7.70;;;;;;;27.12;50.04;97785.84;1631593;88;20933;-73
2021/07/25 08:52:45;;;;;;;17.55;11.22;;;;;;;26.98;50.28;97799.08;1631384;86;22035;-77
2021/07/25 08:55:16;;;;;;;10.93;8.33;;;;;;;26.79;51.08;97802.20;1631426;87;20945;-73
2021/07/25 08:57:45;;;;;;;10.08;8.65;;;;;;;26.68;51.68;97802.18;1637823;86;20998;-78
2021/07/25 09:00:14;;;;;;;13.30;8.40;;;;;;;26.55;52.26;97803.70;1637892;87;20980;-73
2021/07/25 09:02:40;;;;;;;9.18;7.53;;;;;;;26.45;52.63;97807.23;1612263;87;20945;-73
2021/07/25 09:05:07;;;;;;;12.00;8.23;;;;;;;26.37;53.02;97809.14;1638305;87;21193;-78
2021/07/25 09:07:33;;;;;;;10.50;8.30;;;;;;;26.28;53.60;97815.64;1638069;86;20980;-73
2021/07/25 09:10:04;;;;;;;10.53;7.83;;;;;;;26.20;54.79;97809.05;1638029;86;20960;-73
2021/07/25 09:12:30;;;;;;;13.72;9.35;;;;;;;26.01;56.04;97821.23;1631376;86;20981;-77
2021/07/25 09:15:00;;;;;;;12.33;9.13;;;;;;;25.76;56.99;97822.44;1631272;88;20966;-77
2021/07/25 09:17:26;;;;;;;10.90;8.03;;;;;;;25.62;58.08;97833.38;1631371;86;21874;-78
2021/07/25 09:20:26;;;;;;;10.23;9.00;;;;;;;25.58;58.30;97831.97;1631111;88;21028;-77
2021/07/25 09:23:05;;;;;;;11.73;9.25;;;;;;;25.56;58.52;97833.75;1611062;88;21464;-72
2021/07/25 09:25:35;;;;;;;11.45;8.30;;;;;;;25.56;59.03;97841.27;1631439;88;21485;-77
2021/07/25 09:28:09;;;;;;;10.80;8.90;;;;;;;25.62;59.55;97844.47;1631305;86;21261;-77
2021/07/25 09:30:35;;;;;;;13.15;9.20;;;;;;;25.53;58.00;97840.04;1638280;87;21167;-72
2021/07/25 09:33:01;;;;;;;11.25;8.33;;;;;;;25.57;57.13;97845.64;1633124;86;20991;-76
2021/07/25 09:35:39;;;;;;;11.38;8.85;;;;;;;25.63;55.87;97845.47;1601806;89;20979;-77
2021/07/25 09:38:10;;;;;;;10.53;8.88;;;;;;;25.60;55.02;97848.43;1606455;88;21070;-72
2021/07/25 09:40:37;;;;;;;12.15;8.25;;;;;;;25.59;53.63;97848.82;1606473;89;20983;-77
2021/07/25 09:43:10;;;;;;;11.18;7.83;;;;;;;25.58;52.21;97850.80;1606239;87;21944;-73
2021/07/25 09:45:54;;;;;;;11.68;8.28;;;;;;;25.49;51.74;97843.98;1606293;89;20995;-76
2021/07/25 09:48:29;;;;;;;12.40;8.68;;;;;;;25.47;51.67;97848.53;1606202;88;20976;-73
2021/07/25 09:51:05;;;;;;;9.78;8.83;;;;;;;25.46;51.33;97849.68;1601966;89;21007;-76
2021/07/25 09:53:44;;;;;;;12.80;8.13;;;;;;;25.51;50.88;97848.55;1602499;88;21004;-76
2021/07/25 09:56:14;;;;;;;9.65;8.65;;;;;;;25.51;49.87;97846.56;1606489;87;21904;-73
2021/07/25 09:58:41;;;;;;;11.25;7.53;;;;;;;25.47;50.48;97844.95;1605266;88;20977;-77
2021/07/25 10:01:07;;;;;;;9.45;8.55;;;;;;;25.56;49.98;97844.84;1606399;89;21019;-74
2021/07/25 10:03:33;;;;;;;12.98;7.90;;;;;;;25.59;50.05;97850.20;1606201;88;21003;-76
2021/07/25 10:06:02;;;;;;;10.82;8.50;;;;;;;25.65;49.63;97855.62;1606130;89;21059;-76
2021/07/25 10:08:28;;;;;;;10.32;8.45;;;;;;;25.62;49.17;97857.75;1600212;88;21222;-74
2021/07/25 10:10:55;;;;;;;9.85;8.58;;;;;;;25.48;50.03;97857.05;1606361;89;21600;-74
2021/07/25 10:13:26;;;;;;;9.68;8.48;;;;;;;25.50;49.88;97863.59;1606234;88;20991;-74
2021/07/25 10:15:57;;;;;;;8.23;7.12;;;;;;;25.58;49.74;97862.48;1606390;89;21043;-72
2021/07/25 10:18:24;;;;;;;9.15;8.30;;;;;;;25.64;48.75;97865.13;1606171;88;20967;-76
2021/07/25 10:21:00;;;;;;;9.35;7.62;;;;;;;25.60;48.95;97863.69;1606352;88;22071;-73
2021/07/25 10:23:36;;;;;;;12.47;8.08;;;;;;;25.71;47.98;97864.40;1606076;88;20943;-73
2021/07/25 10:26:02;;;;;;;9.10;7.58;;;;;;;25.92;48.03;97862.41;1606541;89;20976;-77
2021/07/25 10:28:31;;;;;;;10.68;8.90;;;;;;;26.01;48.72;97863.66;1606212;87;21458;-77
2021/07/25 10:30:59;;;;;;;8.45;7.40;;;;;;;26.09;49.35;97871.45;1605892;87;21017;-77
2021/07/25 10:33:24;;;;;;;9.70;8.40;;;;;;;26.30;47.78;97872.18;1607523;87;21230;-74
2021/07/25 10:35:50;;;;;;;9.85;8.33;;;;;;;26.20;48.45;97875.09;1612588;89;20902;-73
2021/07/25 10:38:16;;;;;;;10.30;7.97;;;;;;;26.23;47.94;97870.74;1612771;87;20900;-73
2021/07/25 10:40:43;;;;;;;9.23;8.23;;;;;;;26.13;47.27;97880.00;1612955;87;21597;-76
2021/07/25 10:43:11;;;;;;;10.88;8.70;;;;;;;26.02;47.46;97882.50;1612740;87;20987;-74
2021/07/25 10:45:37;;;;;;;9.35;8.40;;;;;;;25.86;47.83;97888.32;1613123;89;21310;-74
2021/07/25 10:48:17;;;;;;;9.05;7.67;;;;;;;25.73;46.94;97883.66;1612755;87;20887;-76
2021/07/25 10:50:43;;;;;;;10.15;8.30;;;;;;;25.59;47.30;97892.61;1612971;89;20996;-74
2021/07/25 10:53:22;;;;;;;9.68;7.92;;;;;;;25.47;47.20;97890.72;1612752;87;21413;-77
2021/07/25 10:55:49;;;;;;;8.45;7.12;;;;;;;25.27;46.90;97897.03;1613066;88;21003;-74
2021/07/25 10:58:21;;;;;;;8.38;7.45;;;;;;;25.12;47.31;97904.97;1612786;87;21130;-74
2021/07/25 11:00:50;;;;;;;11.12;7.47;;;;;;;25.06;47.42;97911.45;1612417;89;21083;-76
2021/07/25 11:03:35;;;;;;;11.15;8.83;;;;;;;24.96;47.63;97907.36;1612827;87;21032;-73
2021/07/25 11:06:11;;;;;;;8.60;7.70;;;;;;;24.89;48.00;97906.47;1612794;89;20990;-76
2021/07/25 11:08:52;;;;;;;10.15;9.15;;;;;;;24.73;47.88;97905.27;1612733;87;21055;-73
2021/07/25 11:11:35;;;;;;;8.80;7.62;;;;;;;24.66;48.15;97912.09;1613024;89;21794;-73
2021/07/25 11:14:05;;;;;;;8.25;7.40;;;;;;;24.61;48.28;97913.23;1612831;89;20961;-73
2021/07/25 11:16:38;;;;;;;7.15;6.37;;;;;;;24.68;48.75;97922.20;1612888;87;21031;-73
2021/07/25 11:19:13;;;;;;;9.63;8.13;;;;;;;24.70;49.31;97921.27;1612883;89;21026;-76
2021/07/25 11:21:41;;;;;;;9.90;7.53;;;;;;;24.46;50.33;97930.81;1612972;87;21003;-74
2021/07/25 11:24:26;;;;;;;7.85;7.15;;;;;;;24.24;51.18;97926.88;1613165;89;22029;-74
2021/07/25 11:26:53;;;;;;;8.63;7.35;;;;;;;24.03;52.17;97925.17;1612904;87;20948;-76
2021/07/25 11:29:35;;;;;;;9.05;7.85;;;;;;;23.87;53.22;97924.71;1612921;89;22124;-74
2021/07/25 11:32:03;;;;;;;11.55;7.42;;;;;;;23.72;53.89;97928.98;1612922;87;20987;-76